Time;durP1;ratioP1;P1;durP2;ratioP2;P2;SDS_P1;SDS_P2;PMS_P1;PMS_P2;Temp;Humidity;BMP_temperature;BMP_pressure;BME280_temperature;BME280_humidity;BME280_pressure;Samples;Min_cycle;Max_cycle;Signal;HPM_P1;HPM_P2
2023/01/15 00:01:01;;;;;;;1.90;0.80;;;10.20;99.90;;;;;;5092378;28;20035;-38
2023/01/15 00:03:27;;;;;;;0.90;0.90;;;10.20;99.90;;;;;;5091285;28;20080;-41
2023/01/15 00:05:53;;;;;;;1.85;0.80;;;10.20;99.90;;;;;;5092110;28;20043;-38
2023/01/15 00:08:19;;;;;;;2.67;1.00;;;10.20;99.90;;;;;;5092159;28;20043;-38
2023/01/15 00:10:45;;;;;;;0.90;0.90;;;10.10;99.90;;;;;;5073611;28;20613;-40
2023/01/15 00:13:10;;;;;;;1.50;0.63;;;10.20;99.90;;;;;;5091457;28;20046;-40
2023/01/15 00:15:36;;;;;;;8.93;0.90;;;10.20;99.90;;;;;;5098742;22;20138;-48
2023/01/15 00:18:02;;;;;;;25.13;14.48;;;10.20;99.90;;;;;;5071083;28;20032;-48
2023/01/15 00:20:27;;;;;;;1.10;1.10;;;10.20;99.90;;;;;;5053820;28;20020;-48
2023/01/15 00:22:53;;;;;;;2.72;1.30;;;10.20;99.90;;;;;;5071096;28;20024;-58
2023/01/15 00:28:03;;;;;;;1.95;0.80;;;10.20;99.90;;;;;;5072391;28;20036;-48
2023/01/15 00:30:29;;;;;;;1.05;0.90;;;10.20;99.90;;;;;;5071604;28;20021;-48
2023/01/15 00:32:54;;;;;;;2.67;0.93;;;10.20;99.90;;;;;;5070774;28;20024;-47
2023/01/15 00:35:21;;;;;;;2.10;0.80;;;10.20;99.90;;;;;;5071268;28;20074;-48
2023/01/15 00:37:48;;;;;;;4.00;1.00;;;10.20;99.90;;;;;;5070769;28;20067;-45
2023/01/15 00:40:16;;;;;;;1.40;1.05;;;10.20;99.90;;;;;;5053138;28;20024;-48
2023/01/15 00:42:41;;;;;;;1.50;0.80;;;10.20;99.90;;;;;;5070724;28;20028;-48
2023/01/15 00:45:09;;;;;;;0.80;0.80;;;10.20;99.90;;;;;;5052944;28;20395;-49
2023/01/15 00:47:39;;;;;;;0.98;0.88;;;10.30;99.90;;;;;;5071369;28;20051;-49
2023/01/15 00:50:08;;;;;;;1.70;1.50;;;10.20;99.90;;;;;;5069585;28;20024;-47
2023/01/15 00:52:33;;;;;;;0.75;0.75;;;10.30;99.90;;;;;;5052591;28;20439;-48
2023/01/15 00:54:59;;;;;;;0.70;0.70;;;10.30;99.90;;;;;;5071224;28;20051;-47
2023/01/15 00:57:25;;;;;;;0.63;0.60;;;10.30;99.90;;;;;;5071140;28;20318;-48
2023/01/15 00:59:50;;;;;;;1.63;0.75;;;10.30;99.90;;;;;;5071137;28;20111;-46
2023/01/15 01:02:16;;;;;;;0.68;0.57;;;10.40;99.90;;;;;;5070338;28;20493;-48
2023/01/15 01:04:41;;;;;;;0.75;0.75;;;10.40;99.90;;;;;;5070933;28;20036;-48
2023/01/15 01:07:07;;;;;;;2.35;0.75;;;10.40;99.90;;;;;;5071351;28;20069;-46
2023/01/15 01:09:32;;;;;;;0.80;0.80;;;10.40;99.90;;;;;;5071075;28;20016;-46
2023/01/15 01:11:58;;;;;;;0.60;0.60;;;10.40;99.90;;;;;;5070257;28;20473;-49
2023/01/15 01:14:24;;;;;;;2.40;0.95;;;10.40;99.90;;;;;;5071142;28;20105;-47
2023/01/15 01:16:49;;;;;;;0.40;0.40;;;10.50;99.90;;;;;;5070824;28;20127;-47
2023/01/15 01:19:18;;;;;;;0.73;0.73;;;10.50;99.90;;;;;;5071014;28;20103;-47
2023/01/15 01:21:44;;;;;;;0.60;0.60;;;10.40;99.90;;;;;;5070828;28;20032;-47
2023/01/15 01:24:11;;;;;;;1.98;0.98;;;10.40;99.90;;;;;;5052596;28;20024;-48
2023/01/15 01:26:36;;;;;;;2.10;1.00;;;10.40;99.90;;;;;;5070951;28;20025;-46
2023/01/15 01:29:03;;;;;;;1.55;0.70;;;10.40;99.90;;;;;;5071247;28;20024;-51
2023/01/15 01:31:28;;;;;;;2.90;0.70;;;10.40;99.90;;;;;;5071707;28;20021;-50
2023/01/15 01:33:57;;;;;;;0.70;0.70;;;10.40;99.90;;;;;;5070557;28;20498;-48
2023/01/15 01:36:32;;;;;;;1.65;0.90;;;10.40;99.90;;;;;;5070663;28;20115;-47
2023/01/15 01:38:59;;;;;;;1.17;0.60;;;10.30;99.90;;;;;;5070990;28;20498;-48
2023/01/15 01:41:25;;;;;;;1.10;0.70;;;10.30;99.90;;;;;;5070787;28;20116;-52
2023/01/15 01:44:01;;;;;;;2.15;0.60;;;10.20;99.90;;;;;;5070068;28;20476;-48
2023/01/15 01:46:29;;;;;;;1.85;0.70;;;10.30;99.90;;;;;;5070623;28;20535;-49
2023/01/15 01:48:59;;;;;;;0.70;0.70;;;10.30;99.90;;;;;;5070440;28;20024;-48
2023/01/15 01:51:27;;;;;;;1.20;0.85;;;10.30;99.90;;;;;;5056611;28;20058;-50
2023/01/15 01:53:55;;;;;;;0.70;0.70;;;10.20;99.90;;;;;;5073669;28;20036;-48
2023/01/15 01:56:22;;;;;;;0.63;0.63;;;10.20;99.90;;;;;;5074129;28;20058;-49
2023/01/15 01:58:52;;;;;;;0.70;0.70;;;10.20;99.90;;;;;;5074485;28;20025;-49
2023/01/15 02:01:18;;;;;;;3.08;0.77;;;10.20;99.90;;;;;;5073960;28;20108;-50
2023/01/15 02:03:43;;;;;;;1.95;0.60;;;10.20;99.90;;;;;;5073649;28;20031;-49
2023/01/15 02:06:11;;;;;;;2.38;0.80;;;10.20;99.90;;;;;;5055902;28;20029;-52
2023/01/15 02:08:38;;;;;;;0.45;0.40;;;10.10;99.90;;;;;;5074088;28;20060;-54
2023/01/15 02:11:04;;;;;;;0.50;0.50;;;10.20;99.90;;;;;;5073879;28;20480;-50
2023/01/15 02:13:38;;;;;;;0.63;0.35;;;10.20;99.90;;;;;;5073379;28;20027;-50
2023/01/15 02:16:16;;;;;;;0.47;0.47;;;10.10;99.90;;;;;;5073528;28;20037;-49
2023/01/15 02:19:07;;;;;;;1.85;0.75;;;10.10;99.90;;;;;;5056225;28;20124;-53
2023/01/15 02:21:44;;;;;;;0.63;0.35;;;10.10;99.90;;;;;;5073667;28;20032;-47
2023/01/15 02:24:34;;;;;;;1.25;0.38;;;10.10;99.90;;;;;;5073010;28;20419;-50
2023/01/15 02:27:13;;;;;;;0.82;0.43;;;10.00;99.90;;;;;;5073599;28;20369;-49
2023/01/15 02:29:48;;;;;;;0.22;0.22;;;10.00;99.90;;;;;;5055835;28;20025;-52
2023/01/15 02:32:36;;;;;;;0.60;0.43;;;10.00;99.90;;;;;;5072821;28;20488;-52
2023/01/15 02:35:10;;;;;;;0.40;0.40;;;10.00;99.90;;;;;;5073713;28;20033;-48
2023/01/15 02:37:39;;;;;;;0.40;0.40;;;10.00;99.90;;;;;;5073585;28;20384;-49
2023/01/15 02:40:06;;;;;;;0.20;0.20;;;10.00;99.90;;;;;;5073527;28;20392;-49
2023/01/15 02:42:34;;;;;;;0.45;0.40;;;9.90;99.90;;;;;;5072729;28;20028;-49
2023/01/15 02:45:02;;;;;;;0.20;0.20;;;9.90;99.90;;;;;;5073200;28;20043;-49
2023/01/15 02:47:34;;;;;;;0.85;0.30;;;9.80;99.90;;;;;;5073457;28;20075;-51
2023/01/15 02:50:04;;;;;;;0.65;0.30;;;9.70;99.90;;;;;;5071653;28;20491;-49
2023/01/15 02:52:44;;;;;;;0.20;0.20;;;9.60;99.90;;;;;;5072450;28;20059;-51
2023/01/15 02:55:32;;;;;;;0.20;0.20;;;9.50;99.90;;;;;;5073009;28;20027;-50
2023/01/15 02:58:02;;;;;;;0.15;0.15;;;9.40;99.90;;;;;;5073002;28;20051;-47
2023/01/15 03:00:33;;;;;;;0.10;0.10;;;9.30;99.90;;;;;;5073140;28;20419;-49
2023/01/15 03:03:08;;;;;;;0.20;0.20;;;9.30;99.90;;;;;;5072148;28;20035;-47
2023/01/15 03:05:49;;;;;;;0.22;0.22;;;9.30;99.90;;;;;;5072808;28;20553;-51
2023/01/15 03:08:15;;;;;;;1.00;0.20;;;9.20;99.90;;;;;;5072975;28;20028;-50
2023/01/15 03:10:46;;;;;;;0.25;0.13;;;9.20;99.90;;;;;;5072790;28;20028;-48
2023/01/15 03:13:26;;;;;;;0.20;0.20;;;9.10;99.90;;;;;;5072108;28;20093;-48
2023/01/15 03:19:21;;;;;;;1.35;0.30;;;9.00;99.90;;;;;;5072961;28;20460;-47
2023/01/15 03:21:56;;;;;;;0.10;0.10;;;9.00;99.90;;;;;;5072323;28;20025;-48
2023/01/15 03:24:42;;;;;;;0.20;0.20;;;9.00;99.90;;;;;;5072623;28;20042;-49
2023/01/15 03:27:09;;;;;;;2.45;0.20;;;9.00;99.90;;;;;;5072394;28;20055;-46
2023/01/15 03:29:43;;;;;;;0.10;0.10;;;8.90;99.90;;;;;;5072648;28;20028;-48
2023/01/15 03:32:09;;;;;;;0.10;0.10;;;8.90;99.90;;;;;;5053636;28;20059;-50
2023/01/15 03:34:50;;;;;;;0.10;0.10;;;9.00;99.90;;;;;;5072412;28;20056;-51
2023/01/15 03:37:17;;;;;;;0.20;0.20;;;8.90;99.90;;;;;;5072050;28;20037;-52
2023/01/15 03:39:42;;;;;;;0.15;0.15;;;8.90;99.90;;;;;;5072198;28;20032;-47
2023/01/15 03:42:22;;;;;;;0.20;0.20;;;8.90;99.90;;;;;;5071565;28;20453;-50
2023/01/15 03:45:00;;;;;;;0.20;0.20;;;8.90;99.90;;;;;;5072020;28;20542;-51
2023/01/15 03:47:44;;;;;;;0.20;0.20;;;8.90;99.90;;;;;;5071902;28;20017;-49
2023/01/15 03:50:26;;;;;;;0.20;0.20;;;8.90;99.90;;;;;;5070576;28;20034;-51
2023/01/15 03:53:07;;;;;;;0.52;0.20;;;8.80;99.90;;;;;;5071271;28;20020;-46
2023/01/15 03:55:57;;;;;;;2.40;0.28;;;8.80;99.90;;;;;;5071921;28;20091;-48
2023/01/15 03:58:28;;;;;;;0.45;0.10;;;8.80;99.90;;;;;;5071909;28;20032;-48
2023/01/15 04:00:58;;;;;;;0.20;0.20;;;8.70;99.90;;;;;;5071775;28;20040;-51
2023/01/15 04:03:26;;;;;;;0.30;0.30;;;8.70;99.90;;;;;;5071544;28;20020;-50
2023/01/15 04:05:56;;;;;;;0.30;0.30;;;8.70;99.90;;;;;;5071867;28;20051;-49
2023/01/15 04:08:23;;;;;;;0.20;0.20;;;8.70;99.90;;;;;;5071944;28;20116;-50
2023/01/15 04:10:54;;;;;;;0.35;0.30;;;8.70;99.90;;;;;;5071173;28;20070;-50
2023/01/15 04:13:19;;;;;;;0.28;0.28;;;8.70;99.90;;;;;;5070901;28;20025;-50
2023/01/15 04:15:45;;;;;;;0.30;0.30;;;8.60;99.90;;;;;;5053504;28;20403;-52
2023/01/15 04:18:10;;;;;;;0.20;0.20;;;8.60;99.90;;;;;;5071631;28;20029;-50
2023/01/15 04:20:36;;;;;;;0.20;0.20;;;8.60;99.90;;;;;;5071681;28;20036;-49
2023/01/15 04:23:01;;;;;;;0.17;0.17;;;8.50;99.90;;;;;;5070791;28;20442;-51
2023/01/15 04:25:27;;;;;;;0.20;0.20;;;8.50;99.90;;;;;;5071808;28;20020;-48
2023/01/15 04:27:53;;;;;;;0.25;0.25;;;8.50;99.90;;;;;;5071544;28;20028;-50
2023/01/15 04:30:19;;;;;;;0.75;0.52;;;8.40;99.90;;;;;;5071715;28;20020;-49
2023/01/15 04:32:48;;;;;;;0.40;0.20;;;8.40;99.90;;;;;;5070909;28;20093;-48
2023/01/15 04:35:14;;;;;;;0.20;0.20;;;8.30;99.90;;;;;;5071624;28;20078;-49
2023/01/15 04:37:39;;;;;;;0.20;0.20;;;8.20;99.90;;;;;;5071419;28;20416;-48
2023/01/15 04:40:06;;;;;;;0.28;0.28;;;8.10;99.90;;;;;;5071609;28;20107;-52
2023/01/15 04:45:15;;;;;;;1.95;0.30;;;8.00;99.90;;;;;;5071749;28;20040;-53
2023/01/15 04:47:41;;;;;;;0.20;0.20;;;8.10;99.90;;;;;;5071313;28;20017;-53
2023/01/15 04:50:07;;;;;;;0.30;0.30;;;8.00;99.90;;;;;;5070134;28;20021;-49
2023/01/15 04:52:32;;;;;;;0.82;0.20;;;8.00;99.90;;;;;;5070503;28;20017;-51
2023/01/15 04:54:58;;;;;;;0.22;0.20;;;8.00;99.90;;;;;;5053445;28;20025;-51
2023/01/15 04:57:23;;;;;;;1.27;0.63;;;7.90;99.90;;;;;;5071291;28;20402;-54
2023/01/15 04:59:49;;;;;;;0.82;0.35;;;7.80;99.90;;;;;;5071169;28;20051;-52
2023/01/15 05:02:15;;;;;;;0.20;0.20;;;7.80;99.90;;;;;;5070934;28;20491;-50
2023/01/15 05:04:40;;;;;;;0.30;0.30;;;7.70;99.90;;;;;;5071375;28;20033;-53
2023/01/15 05:07:06;;;;;;;0.30;0.30;;;7.60;99.90;;;;;;5071642;28;20028;-50
2023/01/15 05:09:32;;;;;;;0.73;0.73;;;7.60;99.90;;;;;;5053503;28;20533;-49
2023/01/15 05:11:57;;;;;;;0.65;0.65;;;7.60;99.90;;;;;;5071086;28;20024;-50
2023/01/15 05:14:23;;;;;;;0.20;0.20;;;7.60;99.90;;;;;;5053684;28;20024;-52
2023/01/15 05:16:48;;;;;;;0.20;0.20;;;7.60;99.90;;;;;;5071452;28;20516;-54
2023/01/15 05:19:14;;;;;;;0.20;0.20;;;7.60;99.90;;;;;;5071372;28;20052;-53
2023/01/15 05:21:42;;;;;;;0.30;0.30;;;7.60;99.90;;;;;;5071914;28;20090;-49
2023/01/15 05:24:12;;;;;;;0.20;0.20;;;7.60;99.90;;;;;;5073805;28;20029;-51
2023/01/15 05:26:38;;;;;;;0.30;0.30;;;7.60;99.90;;;;;;5075182;28;20021;-49
2023/01/15 05:29:03;;;;;;;0.75;0.43;;;7.60;99.90;;;;;;5057023;28;20027;-47
2023/01/15 05:31:30;;;;;;;0.20;0.20;;;7.60;99.90;;;;;;5074740;28;20052;-52
2023/01/15 05:33:56;;;;;;;0.47;0.30;;;7.60;99.90;;;;;;5074223;28;20103;-52
2023/01/15 05:36:24;;;;;;;0.28;0.28;;;7.60;99.90;;;;;;5074539;28;20209;-50
2023/01/15 05:38:50;;;;;;;0.20;0.20;;;7.50;99.90;;;;;;5074606;28;20504;-49
2023/01/15 05:44:05;;;;;;;0.35;0.35;;;7.50;99.90;;;;;;5074287;28;20036;-50
2023/01/15 05:46:33;;;;;;;0.98;0.30;;;7.60;99.90;;;;;;5074958;28;20080;-49
2023/01/15 05:49:04;;;;;;;0.30;0.30;;;7.60;99.90;;;;;;5073722;28;20027;-48
2023/01/15 05:51:30;;;;;;;0.57;0.57;;;7.50;99.90;;;;;;5074322;28;20054;-48
2023/01/15 05:53:56;;;;;;;0.30;0.30;;;7.50;99.90;;;;;;5073699;28;20079;-49
2023/01/15 05:56:22;;;;;;;0.30;0.30;;;7.50;99.90;;;;;;5074319;28;20393;-50
2023/01/15 05:58:48;;;;;;;0.20;0.20;;;7.50;99.90;;;;;;5074444;28;20034;-48
2023/01/15 06:01:14;;;;;;;0.75;0.47;;;7.50;99.90;;;;;;5074430;28;20032;-49
2023/01/15 06:03:40;;;;;;;0.30;0.30;;;7.60;99.90;;;;;;5073338;28;20103;-51
2023/01/15 06:06:06;;;;;;;1.35;0.45;;;7.50;99.90;;;;;;5074110;28;20095;-49
2023/01/15 06:08:32;;;;;;;0.32;0.30;;;7.40;99.90;;;;;;5074408;28;20059;-48
2023/01/15 06:10:57;;;;;;;0.55;0.50;;;7.40;99.90;;;;;;5074686;28;20025;-48
2023/01/15 06:13:23;;;;;;;0.30;0.30;;;7.40;99.90;;;;;;5073856;28;20093;-51
2023/01/15 06:15:48;;;;;;;0.30;0.28;;;7.30;99.90;;;;;;5074655;28;20409;-48
2023/01/15 06:18:14;;;;;;;2.13;0.73;;;7.40;99.90;;;;;;5073873;28;20396;-50
2023/01/15 06:20:41;;;;;;;0.30;0.30;;;7.30;99.90;;;;;;5073763;28;20377;-50
2023/01/15 06:23:08;;;;;;;1.42;0.25;;;7.40;99.90;;;;;;5073111;28;20021;-49
2023/01/15 06:25:36;;;;;;;0.38;0.30;;;7.40;99.90;;;;;;5073645;28;20032;-50
2023/01/15 06:28:03;;;;;;;1.25;0.38;;;7.40;99.90;;;;;;5073640;28;20021;-49
2023/01/15 06:30:29;;;;;;;0.93;0.40;;;7.40;99.90;;;;;;5055758;28;20031;-47
2023/01/15 06:32:54;;;;;;;0.38;0.38;;;7.30;99.90;;;;;;5072736;28;20020;-46
2023/01/15 06:35:20;;;;;;;1.58;0.30;;;7.20;99.90;;;;;;5054624;28;20124;-53
2023/01/15 06:37:47;;;;;;;0.98;0.30;;;7.10;99.90;;;;;;5073590;28;20403;-49
2023/01/15 06:40:13;;;;;;;0.30;0.30;;;7.10;99.90;;;;;;5055468;28;20024;-48
2023/01/15 06:48:07;;;;;;;0.30;0.30;;;7.00;99.90;;;;;;5073584;28;20036;-48
2023/01/15 06:50:32;;;;;;;0.52;0.40;;;7.00;99.90;;;;;;5071643;28;20021;-54
2023/01/15 06:52:58;;;;;;;0.28;0.28;;;6.90;99.90;;;;;;5072392;28;20023;-50
2023/01/15 06:55:23;;;;;;;0.20;0.20;;;6.80;99.90;;;;;;5072968;28;20036;-49
2023/01/15 06:57:49;;;;;;;1.10;0.43;;;6.80;99.90;;;;;;5073111;28;20024;-49
2023/01/15 07:00:15;;;;;;;0.52;0.40;;;6.80;99.90;;;;;;5073087;28;20047;-48
2023/01/15 07:02:40;;;;;;;3.15;0.60;;;6.70;99.90;;;;;;5072223;28;20074;-50
2023/01/15 07:05:07;;;;;;;0.40;0.32;;;6.70;99.90;;;;;;5072694;28;20029;-49
2023/01/15 07:07:33;;;;;;;3.95;0.60;;;6.70;99.90;;;;;;5054859;28;20036;-49
2023/01/15 07:09:58;;;;;;;0.20;0.20;;;6.80;99.90;;;;;;5072832;28;20033;-51
2023/01/15 07:12:24;;;;;;;0.30;0.30;;;6.70;99.90;;;;;;5071994;28;20104;-50
2023/01/15 07:14:50;;;;;;;0.45;0.45;;;6.70;99.90;;;;;;5054770;28;20025;-49
2023/01/15 07:17:15;;;;;;;0.47;0.47;;;6.60;99.90;;;;;;5072829;28;20028;-45
2023/01/15 07:19:42;;;;;;;0.65;0.50;;;6.70;99.90;;;;;;5073006;28;20028;-50
2023/01/15 07:22:09;;;;;;;0.50;0.50;;;6.60;99.90;;;;;;5072040;28;20037;-51
2023/01/15 07:24:34;;;;;;;0.70;0.70;;;6.70;99.90;;;;;;5072504;28;20541;-51
2023/01/15 07:27:00;;;;;;;0.50;0.50;;;6.60;99.90;;;;;;5072510;28;20199;-49
2023/01/15 07:29:26;;;;;;;0.40;0.40;;;6.70;99.90;;;;;;5054548;28;20480;-48
2023/01/15 07:31:51;;;;;;;0.93;0.45;;;6.60;99.90;;;;;;5072111;28;20032;-50
2023/01/15 07:34:17;;;;;;;0.50;0.50;;;6.60;99.90;;;;;;5072535;28;20021;-50
2023/01/15 07:36:43;;;;;;;0.40;0.40;;;6.60;99.90;;;;;;5072279;28;20021;-49
2023/01/15 07:39:10;;;;;;;0.80;0.40;;;6.60;99.90;;;;;;5072348;28;20024;-48
2023/01/15 07:50:20;;;;;;;0.52;0.30;;;6.60;99.90;;;;;;5065943;28;20085;-48
2023/01/15 07:52:46;;;;;;;0.38;0.38;;;6.60;99.90;;;;;;5071464;28;20020;-47
2023/01/15 07:55:12;;;;;;;0.35;0.35;;;6.50;99.90;;;;;;5072200;28;20046;-47
2023/01/15 07:57:38;;;;;;;0.40;0.40;;;6.50;99.90;;;;;;5072096;28;20062;-46
2023/01/15 08:00:06;;;;;;;0.30;0.30;;;6.60;99.90;;;;;;5072220;28;20029;-46
2023/01/15 08:02:32;;;;;;;0.30;0.30;;;6.60;99.90;;;;;;5071344;28;20114;-46
2023/01/15 08:04:57;;;;;;;0.30;0.30;;;6.70;99.90;;;;;;5072094;28;20108;-45
2023/01/15 08:07:23;;;;;;;0.40;0.40;;;6.70;99.90;;;;;;5071918;28;20095;-52
2023/01/15 08:09:49;;;;;;;0.40;0.40;;;6.70;99.90;;;;;;5072189;28;20499;-49
2023/01/15 08:15:14;;;;;;;0.32;0.32;;;6.70;99.90;;;;;;5071851;28;20086;-50
2023/01/15 08:17:50;;;;;;;0.40;0.40;;;6.70;99.90;;;;;;5071952;28;20103;-53
2023/01/15 08:20:24;;;;;;;3.90;0.80;;;6.60;99.90;;;;;;5071673;28;20095;-49
2023/01/15 08:22:49;;;;;;;0.63;0.63;;;6.70;99.90;;;;;;5071368;28;20027;-47
2023/01/15 08:25:18;;;;;;;1.10;0.50;;;6.70;99.90;;;;;;5053989;28;20109;-49
2023/01/15 08:27:45;;;;;;;0.40;0.40;;;6.60;99.90;;;;;;5071913;28;20026;-49
2023/01/15 08:30:14;;;;;;;1.30;0.60;;;6.60;99.90;;;;;;5071820;28;20079;-51
2023/01/15 08:32:39;;;;;;;0.45;0.43;;;6.60;99.90;;;;;;5070814;28;20154;-51
2023/01/15 08:35:05;;;;;;;0.30;0.30;;;6.50;99.90;;;;;;5071716;28;20519;-52
2023/01/15 08:37:31;;;;;;;0.40;0.40;;;6.50;99.90;;;;;;5053415;28;20632;-50
2023/01/15 08:39:56;;;;;;;0.40;0.40;;;6.50;99.90;;;;;;5071675;28;20082;-47
2023/01/15 08:42:22;;;;;;;0.50;0.50;;;6.50;99.90;;;;;;5070905;28;20031;-50
2023/01/15 08:44:48;;;;;;;1.88;1.23;;;6.50;99.90;;;;;;5071966;28;20103;-47
2023/01/15 08:47:15;;;;;;;0.40;0.40;;;6.60;99.90;;;;;;5071641;28;20085;-47
2023/01/15 08:49:41;;;;;;;0.40;0.40;;;6.60;99.90;;;;;;5070900;28;20073;-48
2023/01/15 08:52:06;;;;;;;0.35;0.35;;;6.60;99.90;;;;;;5071166;28;20025;-51
2023/01/15 08:54:32;;;;;;;0.68;0.30;;;6.60;99.90;;;;;;5071635;28;20097;-49
2023/01/15 08:56:58;;;;;;;0.38;0.38;;;6.60;99.90;;;;;;5071343;28;20479;-51
2023/01/15 08:59:24;;;;;;;0.30;0.30;;;6.50;99.90;;;;;;5076073;28;20028;-53
2023/01/15 09:01:50;;;;;;;0.60;0.60;;;6.50;99.90;;;;;;5075306;28;20035;-51
2023/01/15 09:04:18;;;;;;;3.67;0.40;;;6.60;99.90;;;;;;5074909;28;20024;-53
2023/01/15 09:06:46;;;;;;;0.30;0.30;;;6.60;99.90;;;;;;5057252;28;20046;-50
2023/01/15 09:09:12;;;;;;;0.40;0.40;;;6.60;99.90;;;;;;5075429;28;20779;-50
2023/01/15 09:11:43;;;;;;;0.30;0.30;;;6.50;99.90;;;;;;5075308;28;20557;-51
2023/01/15 09:14:11;;;;;;;1.23;0.40;;;6.50;99.90;;;;;;5074811;28;20447;-47
2023/01/15 09:16:37;;;;;;;0.25;0.25;;;6.50;99.90;;;;;;5074890;28;20047;-51
2023/01/15 09:19:05;;;;;;;0.45;0.22;;;6.60;99.90;;;;;;5057228;28;20036;-48
2023/01/15 09:21:30;;;;;;;0.38;0.35;;;6.60;99.90;;;;;;5075017;28;20031;-51
2023/01/15 09:23:56;;;;;;;0.40;0.40;;;6.60;99.90;;;;;;5074506;28;20024;-52
2023/01/15 09:26:29;;;;;;;0.32;0.20;;;6.60;99.90;;;;;;5074622;28;20035;-50
2023/01/15 09:28:55;;;;;;;0.40;0.40;;;6.60;99.90;;;;;;5075305;28;20027;-52
2023/01/15 09:31:21;;;;;;;0.32;0.32;;;6.60;99.90;;;;;;5074286;28;20021;-52
2023/01/15 09:33:47;;;;;;;0.30;0.30;;;6.60;99.90;;;;;;5074205;28;20050;-50
2023/01/15 09:36:26;;;;;;;0.50;0.40;;;6.60;99.90;;;;;;5074698;28;20031;-52
2023/01/15 09:38:52;;;;;;;0.20;0.20;;;6.70;99.90;;;;;;5075311;28;20033;-53
2023/01/15 09:44:25;;;;;;;0.47;0.30;;;6.70;99.90;;;;;;5076744;28;20070;-48
2023/01/15 09:47:05;;;;;;;0.30;0.30;;;6.70;99.90;;;;;;5036534;28;20025;-50
2023/01/15 09:49:46;;;;;;;0.30;0.30;;;6.70;99.90;;;;;;5053525;28;20025;-47
2023/01/15 09:52:29;;;;;;;0.35;0.35;;;6.70;99.90;;;;;;5052728;28;20249;-51
2023/01/15 09:55:04;;;;;;;0.55;0.30;;;6.70;99.90;;;;;;5054261;28;20077;-50
2023/01/15 09:57:31;;;;;;;0.40;0.40;;;6.70;99.90;;;;;;5054448;28;20025;-47
2023/01/15 10:00:02;;;;;;;0.40;0.40;;;6.70;99.90;;;;;;5054592;28;20108;-50
2023/01/15 10:02:45;;;;;;;0.63;0.40;;;6.70;99.90;;;;;;5054607;28;20040;-53
2023/01/15 10:05:18;;;;;;;0.43;0.43;;;6.70;99.90;;;;;;5037108;28;20107;-50
2023/01/15 10:07:54;;;;;;;0.98;0.40;;;6.70;99.90;;;;;;5059187;28;20363;-50
2023/01/15 10:10:25;;;;;;;1.77;1.20;;;6.80;99.90;;;;;;5073614;28;20031;-48
2023/01/15 10:12:56;;;;;;;0.40;0.40;;;6.70;99.90;;;;;;5074281;28;20028;-50
2023/01/15 10:15:43;;;;;;;0.30;0.30;;;6.70;99.90;;;;;;5074659;28;20089;-49
2023/01/15 10:18:17;;;;;;;0.20;0.20;;;6.70;99.90;;;;;;5074223;28;20431;-49
2023/01/15 10:21:11;;;;;;;0.73;0.40;;;6.70;99.90;;;;;;5073842;28;20059;-48
2023/01/15 10:23:55;;;;;;;2.95;0.38;;;6.70;99.90;;;;;;5055132;28;20404;-49
2023/01/15 10:26:46;;;;;;;0.40;0.40;;;6.70;99.90;;;;;;5074089;28;20480;-48
2023/01/15 10:29:30;;;;;;;0.60;0.60;;;6.60;99.90;;;;;;5073882;28;20031;-47
2023/01/15 10:32:15;;;;;;;0.90;0.70;;;6.70;99.90;;;;;;5073503;28;20024;-46
2023/01/15 10:34:58;;;;;;;0.40;0.40;;;6.60;99.90;;;;;;5073922;28;20031;-46
2023/01/15 10:38:06;;;;;;;0.30;0.30;;;6.70;99.90;;;;;;5077495;28;20088;-54
2023/01/15 10:40:52;;;;;;;0.38;0.38;;;6.60;99.90;;;;;;5036612;28;20047;-49
2023/01/15 10:43:36;;;;;;;2.83;0.60;;;6.60;99.90;;;;;;5073339;28;20504;-48
2023/01/15 10:46:12;;;;;;;0.40;0.40;;;6.50;99.90;;;;;;5063995;28;20047;-48
2023/01/15 10:48:42;;;;;;;1.73;0.70;;;6.40;99.90;;;;;;5075302;28;20032;-49
2023/01/15 10:51:16;;;;;;;2.92;0.63;;;6.40;99.90;;;;;;5073254;28;20028;-46
2023/01/15 10:53:44;;;;;;;0.68;0.35;;;6.40;99.90;;;;;;5072943;28;20020;-49
2023/01/15 10:56:30;;;;;;;1.02;0.50;;;6.40;99.90;;;;;;5073325;28;20035;-52
2023/01/15 10:59:07;;;;;;;2.60;0.90;;;6.40;99.90;;;;;;5073675;28;20029;-50
2023/01/15 11:01:33;;;;;;;0.55;0.55;;;6.40;99.90;;;;;;5069756;28;20082;-51
2023/01/15 11:03:59;;;;;;;0.63;0.50;;;6.30;99.90;;;;;;5071929;28;20028;-48
2023/01/15 11:06:25;;;;;;;1.38;1.17;;;6.30;99.90;;;;;;5072470;28;20481;-50
2023/01/15 11:08:56;;;;;;;1.20;0.52;;;6.30;99.90;;;;;;5072975;28;20057;-51
2023/01/15 11:19:35;;;;;;;1.70;0.50;;;6.30;99.90;;;;;;5072520;28;20036;-50
2023/01/15 11:22:09;;;;;;;1.85;0.50;;;6.30;99.90;;;;;;5071248;28;20031;-50
2023/01/15 11:24:46;;;;;;;3.13;1.40;;;6.30;99.90;;;;;;5072337;28;20027;-49
2023/01/15 11:27:21;;;;;;;0.90;0.50;;;6.30;99.90;;;;;;5072059;28;20046;-52
2023/01/15 11:29:52;;;;;;;1.67;0.60;;;6.30;99.90;;;;;;5072395;28;20024;-49
2023/01/15 11:32:30;;;;;;;0.73;0.30;;;6.30;99.90;;;;;;5053427;28;20439;-46
2023/01/15 11:34:58;;;;;;;2.08;0.30;;;6.30;99.90;;;;;;5068329;28;20032;-46
2023/01/15 11:37:24;;;;;;;0.85;0.40;;;6.30;99.90;;;;;;5071111;28;20023;-47
2023/01/15 11:40:05;;;;;;;0.32;0.32;;;6.30;99.90;;;;;;5069166;28;20031;-48
2023/01/15 11:51:27;;;;;;;0.43;0.40;;;6.40;99.90;;;;;;5072398;28;20046;-49
2023/01/15 11:53:58;;;;;;;0.30;0.30;;;6.60;99.90;;;;;;5078631;28;20115;-47
2023/01/15 11:56:26;;;;;;;1.05;0.30;;;6.80;99.90;;;;;;5081742;28;20078;-48
2023/01/15 11:58:54;;;;;;;1.08;0.40;;;6.90;99.90;;;;;;5062222;28;20020;-51
2023/01/15 12:01:30;;;;;;;0.60;0.38;;;7.00;99.90;;;;;;5071455;28;20111;-50
2023/01/15 12:03:57;;;;;;;0.70;0.47;;;7.00;99.90;;;;;;5070713;28;20447;-49
2023/01/15 12:06:25;;;;;;;1.58;0.38;;;7.00;99.90;;;;;;5071094;28;20033;-51
2023/01/15 12:09:15;;;;;;;2.33;0.57;;;7.10;99.90;;;;;;5071813;28;20024;-50
2023/01/15 12:12:08;;;;;;;1.13;0.70;;;7.10;99.90;;;;;;5053766;28;20028;-50
2023/01/15 12:14:44;;;;;;;3.20;0.50;;;7.10;99.90;;;;;;5071375;28;20021;-49
2023/01/15 12:17:58;;;;;;;0.38;0.38;;;7.20;99.90;;;;;;5071483;28;20028;-53
2023/01/15 12:20:55;;;;;;;2.65;0.70;;;7.20;99.90;;;;;;5048330;22;20427;-52
2023/01/15 12:23:30;;;;;;;7.15;0.82;;;7.30;99.90;;;;;;5050310;28;20049;-51
2023/01/15 12:26:16;;;;;;;5.00;0.88;;;7.40;99.90;;;;;;5051125;28;20393;-48
2023/01/15 12:28:51;;;;;;;1.08;0.70;;;7.40;99.90;;;;;;5051700;28;20107;-48
2023/01/15 12:31:21;;;;;;;1.23;0.63;;;7.50;99.90;;;;;;5050109;28;20052;-46
2023/01/15 12:33:59;;;;;;;4.07;0.77;;;7.60;99.90;;;;;;5055998;28;20559;-58
2023/01/15 12:36:33;;;;;;;4.82;1.08;;;7.60;99.90;;;;;;5064312;28;20111;-50
2023/01/15 12:39:02;;;;;;;3.95;0.70;;;7.60;99.90;;;;;;5069111;28;20024;-52
2023/01/15 12:44:59;;;;;;;6.53;0.88;;;7.60;99.90;;;;;;5059953;28;20070;-56
2023/01/15 12:47:33;;;;;;;3.85;1.08;;;7.60;99.90;;;;;;5060475;28;20043;-47
2023/01/15 12:50:19;;;;;;;4.38;0.80;;;7.60;99.90;;;;;;5052267;28;20040;-49
2023/01/15 12:52:49;;;;;;;2.15;0.50;;;7.50;99.90;;;;;;5049222;28;20028;-50
2023/01/15 12:55:19;;;;;;;5.65;0.95;;;7.50;99.90;;;;;;5050092;28;20401;-50
2023/01/15 12:57:49;;;;;;;4.38;1.88;;;7.50;99.90;;;;;;5055050;28;20017;-51
2023/01/15 13:00:22;;;;;;;4.15;0.82;;;7.60;99.90;;;;;;5033504;28;20481;-47
2023/01/15 13:03:02;;;;;;;1.33;0.80;;;7.60;99.90;;;;;;5050605;28;20074;-46
2023/01/15 13:05:32;;;;;;;3.55;1.08;;;7.70;99.90;;;;;;5050091;28;20036;-47
2023/01/15 13:08:19;;;;;;;1.00;0.77;;;7.80;99.90;;;;;;5053097;28;20503;-46
2023/01/15 13:10:48;;;;;;;2.70;1.13;;;7.90;99.90;;;;;;5040035;28;20123;-53
2023/01/15 13:13:18;;;;;;;3.13;0.75;;;7.90;99.90;;;;;;5032393;28;20025;-53
2023/01/15 13:16:22;;;;;;;1.77;0.73;;;7.90;99.90;;;;;;5038929;28;20083;-54
2023/01/15 13:19:21;;;;;;;5.00;1.60;;;7.90;99.90;;;;;;5031040;28;20394;-50
2023/01/15 13:21:53;;;;;;;3.65;0.68;;;7.90;99.90;;;;;;5030960;28;20128;-50
2023/01/15 13:24:43;;;;;;;4.57;1.00;;;7.80;99.90;;;;;;5031019;28;20022;-55
2023/01/15 13:27:26;;;;;;;5.28;1.33;;;7.70;99.90;;;;;;5030741;28;20350;-49
2023/01/15 13:30:17;;;;;;;1.15;0.90;;;7.70;99.90;;;;;;5030773;28;20025;-49
2023/01/15 13:32:47;;;;;;;4.85;0.70;;;7.70;99.90;;;;;;5031033;28;20022;-53
2023/01/15 13:35:32;;;;;;;1.48;0.85;;;7.70;99.90;;;;;;5045085;28;20112;-57
2023/01/15 13:38:02;;;;;;;1.42;0.80;;;7.70;99.90;;;;;;5050356;28;20025;-55
2023/01/15 13:40:37;;;;;;;3.20;1.00;;;7.80;99.90;;;;;;5032198;28;20558;-55
2023/01/15 13:43:05;;;;;;;4.28;0.77;;;7.90;99.90;;;;;;5049867;28;20036;-51
2023/01/15 13:45:30;;;;;;;7.78;0.80;;;8.00;99.90;;;;;;5035195;28;20459;-52
2023/01/15 13:48:04;;;;;;;3.10;0.98;;;8.00;99.90;;;;;;5053269;28;20025;-52
2023/01/15 13:50:33;;;;;;;1.20;0.77;;;8.10;99.90;;;;;;5052423;28;20013;-53
2023/01/15 13:53:19;;;;;;;1.90;1.02;;;8.10;99.90;;;;;;5034035;28;20116;-52
2023/01/15 13:56:01;;;;;;;;;;;8.20;99.90;;;;;;5038892;28;20538;-49
2023/01/15 13:58:29;;;;;;;5.68;0.90;;;8.20;99.90;;;;;;5036175;28;20352;-49
2023/01/15 14:01:16;;;;;;;4.70;1.23;;;8.20;99.90;;;;;;5042170;28;20033;-44
2023/01/15 14:03:57;;;;;;;3.67;0.70;;;8.30;99.90;;;;;;5052818;28;20029;-45
2023/01/15 14:06:52;;;;;;;2.90;1.15;;;8.30;99.90;;;;;;5050983;28;20117;-47